sensor_id;sensor_type;location;lat;lon;timestamp;P1;durP1;ratioP1;P2;durP2;ratioP2
18214;SDS011;9233;51.312;6.512;2022-10-03T00:01:07;11.30;;;2.30;;
18214;SDS011;9233;51.312;6.512;2022-10-03T00:04:09;7.57;;;2.10;;
18214;SDS011;9233;51.312;6.512;2022-10-03T00:07:02;5.73;;;1.73;;
18214;SDS011;9233;51.312;6.512;2022-10-03T00:09:58;9.50;;;1.83;;
18214;SDS011;9233;51.312;6.512;2022-10-03T00:13:02;6.03;;;1.80;;
18214;SDS011;9233;51.312;6.512;2022-10-03T00:16:00;7.37;;;2.10;;
18214;SDS011;9233;51.312;6.512;2022-10-03T00:18:54;3.83;;;1.77;;
18214;SDS011;9233;51.312;6.512;2022-10-03T00:21:50;6.83;;;1.77;;
18214;SDS011;9233;51.312;6.512;2022-10-03T00:24:44;10.63;;;2.20;;
18214;SDS011;9233;51.312;6.512;2022-10-03T00:27:39;7.23;;;1.70;;
18214;SDS011;9233;51.312;6.512;2022-10-03T00:30:28;4.67;;;2.00;;
18214;SDS011;9233;51.312;6.512;2022-10-03T00:33:30;4.43;;;1.80;;
18214;SDS011;9233;51.312;6.512;2022-10-03T00:36:26;8.23;;;2.07;;
18214;SDS011;9233;51.312;6.512;2022-10-03T00:39:36;9.63;;;2.20;;
18214;SDS011;9233;51.312;6.512;2022-10-03T00:45:54;5.60;;;1.60;;
18214;SDS011;9233;51.312;6.512;2022-10-03T00:52:26;10.10;;;1.90;;
18214;SDS011;9233;51.312;6.512;2022-10-03T00:55:23;9.30;;;1.80;;
18214;SDS011;9233;51.312;6.512;2022-10-03T00:58:26;6.40;;;1.93;;
18214;SDS011;9233;51.312;6.512;2022-10-03T01:01:28;10.70;;;1.97;;
18214;SDS011;9233;51.312;6.512;2022-10-03T01:04:22;8.07;;;2.10;;
18214;SDS011;9233;51.312;6.512;2022-10-03T01:07:21;10.20;;;1.97;;
18214;SDS011;9233;51.312;6.512;2022-10-03T01:10:16;5.30;;;1.63;;
18214;SDS011;9233;51.312;6.512;2022-10-03T01:13:18;8.60;;;1.70;;
18214;SDS011;9233;51.312;6.512;2022-10-03T01:16:15;9.53;;;2.13;;
18214;SDS011;9233;51.312;6.512;2022-10-03T01:19:10;13.20;;;3.37;;
18214;SDS011;9233;51.312;6.512;2022-10-03T01:22:38;6.63;;;1.97;;
18214;SDS011;9233;51.312;6.512;2022-10-03T01:25:37;4.60;;;1.60;;
18214;SDS011;9233;51.312;6.512;2022-10-03T01:31:49;11.00;;;2.00;;
18214;SDS011;9233;51.312;6.512;2022-10-03T01:34:41;7.90;;;1.90;;
18214;SDS011;9233;51.312;6.512;2022-10-03T01:37:31;4.47;;;1.50;;
18214;SDS011;9233;51.312;6.512;2022-10-03T01:40:26;6.13;;;1.57;;
18214;SDS011;9233;51.312;6.512;2022-10-03T01:43:15;5.73;;;1.87;;
18214;SDS011;9233;51.312;6.512;2022-10-03T01:46:09;3.93;;;1.80;;
18214;SDS011;9233;51.312;6.512;2022-10-03T01:49:00;5.50;;;1.73;;
18214;SDS011;9233;51.312;6.512;2022-10-03T01:51:55;4.97;;;1.70;;
18214;SDS011;9233;51.312;6.512;2022-10-03T01:54:48;7.67;;;1.90;;
18214;SDS011;9233;51.312;6.512;2022-10-03T01:57:39;7.53;;;2.47;;
18214;SDS011;9233;51.312;6.512;2022-10-03T02:00:29;6.80;;;2.30;;
18214;SDS011;9233;51.312;6.512;2022-10-03T02:03:23;7.77;;;2.10;;
18214;SDS011;9233;51.312;6.512;2022-10-03T02:06:16;3.20;;;1.63;;
18214;SDS011;9233;51.312;6.512;2022-10-03T02:09:08;3.60;;;1.73;;
18214;SDS011;9233;51.312;6.512;2022-10-03T02:12:00;7.30;;;2.00;;
18214;SDS011;9233;51.312;6.512;2022-10-03T02:14:50;5.27;;;2.00;;
18214;SDS011;9233;51.312;6.512;2022-10-03T02:17:45;6.47;;;2.60;;
18214;SDS011;9233;51.312;6.512;2022-10-03T02:20:42;8.77;;;1.97;;
18214;SDS011;9233;51.312;6.512;2022-10-03T02:23:36;5.13;;;1.53;;
18214;SDS011;9233;51.312;6.512;2022-10-03T02:26:35;7.60;;;1.93;;
18214;SDS011;9233;51.312;6.512;2022-10-03T02:29:48;6.17;;;1.77;;
18214;SDS011;9233;51.312;6.512;2022-10-03T02:36:30;8.83;;;2.10;;
18214;SDS011;9233;51.312;6.512;2022-10-03T02:39:47;6.17;;;1.67;;
18214;SDS011;9233;51.312;6.512;2022-10-03T02:42:56;6.97;;;2.40;;
18214;SDS011;9233;51.312;6.512;2022-10-03T02:45:56;7.00;;;1.73;;
18214;SDS011;9233;51.312;6.512;2022-10-03T02:48:58;5.90;;;1.77;;
18214;SDS011;9233;51.312;6.512;2022-10-03T02:51:58;4.43;;;1.90;;
18214;SDS011;9233;51.312;6.512;2022-10-03T02:54:58;6.30;;;1.67;;
18214;SDS011;9233;51.312;6.512;2022-10-03T02:58:06;2.93;;;1.50;;
18214;SDS011;9233;51.312;6.512;2022-10-03T03:01:24;7.50;;;2.00;;
18214;SDS011;9233;51.312;6.512;2022-10-03T03:04:22;6.97;;;2.20;;
18214;SDS011;9233;51.312;6.512;2022-10-03T03:07:38;6.93;;;1.73;;
18214;SDS011;9233;51.312;6.512;2022-10-03T03:10:41;6.77;;;2.00;;
18214;SDS011;9233;51.312;6.512;2022-10-03T03:13:50;9.67;;;1.70;;
18214;SDS011;9233;51.312;6.512;2022-10-03T03:16:51;4.80;;;1.77;;
18214;SDS011;9233;51.312;6.512;2022-10-03T03:19:55;5.43;;;1.60;;
18214;SDS011;9233;51.312;6.512;2022-10-03T03:22:54;4.43;;;1.80;;
18214;SDS011;9233;51.312;6.512;2022-10-03T03:25:58;4.10;;;1.63;;
18214;SDS011;9233;51.312;6.512;2022-10-03T03:28:55;6.40;;;1.80;;
18214;SDS011;9233;51.312;6.512;2022-10-03T03:31:51;6.70;;;1.60;;
18214;SDS011;9233;51.312;6.512;2022-10-03T03:34:50;4.77;;;1.50;;
18214;SDS011;9233;51.312;6.512;2022-10-03T03:37:43;4.73;;;1.83;;
18214;SDS011;9233;51.312;6.512;2022-10-03T03:40:37;5.23;;;1.80;;
18214;SDS011;9233;51.312;6.512;2022-10-03T03:43:37;6.07;;;1.60;;
18214;SDS011;9233;51.312;6.512;2022-10-03T03:46:36;7.53;;;1.70;;
18214;SDS011;9233;51.312;6.512;2022-10-03T03:49:37;3.53;;;1.63;;
18214;SDS011;9233;51.312;6.512;2022-10-03T03:52:35;5.80;;;2.17;;
18214;SDS011;9233;51.312;6.512;2022-10-03T03:55:39;8.00;;;1.90;;
18214;SDS011;9233;51.312;6.512;2022-10-03T03:58:38;7.57;;;2.07;;
18214;SDS011;9233;51.312;6.512;2022-10-03T04:01:35;7.60;;;2.20;;
18214;SDS011;9233;51.312;6.512;2022-10-03T04:04:37;6.87;;;2.20;;
18214;SDS011;9233;51.312;6.512;2022-10-03T04:07:32;5.10;;;2.27;;
18214;SDS011;9233;51.312;6.512;2022-10-03T04:10:35;4.20;;;1.73;;
18214;SDS011;9233;51.312;6.512;2022-10-03T04:13:47;4.13;;;2.57;;
18214;SDS011;9233;51.312;6.512;2022-10-03T04:17:04;7.33;;;2.17;;
18214;SDS011;9233;51.312;6.512;2022-10-03T04:20:19;6.40;;;1.63;;
18214;SDS011;9233;51.312;6.512;2022-10-03T04:23:14;8.87;;;2.07;;
18214;SDS011;9233;51.312;6.512;2022-10-03T04:26:15;5.30;;;2.27;;
18214;SDS011;9233;51.312;6.512;2022-10-03T04:29:14;6.70;;;1.87;;
18214;SDS011;9233;51.312;6.512;2022-10-03T04:32:11;4.13;;;1.70;;
18214;SDS011;9233;51.312;6.512;2022-10-03T04:35:11;4.37;;;1.90;;
18214;SDS011;9233;51.312;6.512;2022-10-03T04:38:08;5.53;;;1.63;;
18214;SDS011;9233;51.312;6.512;2022-10-03T04:40:59;7.20;;;2.00;;
18214;SDS011;9233;51.312;6.512;2022-10-03T04:43:53;3.57;;;1.83;;
18214;SDS011;9233;51.312;6.512;2022-10-03T04:46:47;4.23;;;1.70;;
18214;SDS011;9233;51.312;6.512;2022-10-03T04:49:39;3.97;;;2.13;;
18214;SDS011;9233;51.312;6.512;2022-10-03T04:52:30;4.87;;;1.67;;
18214;SDS011;9233;51.312;6.512;2022-10-03T04:55:24;8.47;;;2.00;;
18214;SDS011;9233;51.312;6.512;2022-10-03T04:58:29;4.58;;;2.07;;
18214;SDS011;9233;51.312;6.512;2022-10-03T05:01:22;4.90;;;2.00;;
18214;SDS011;9233;51.312;6.512;2022-10-03T05:04:15;12.27;;;1.97;;
18214;SDS011;9233;51.312;6.512;2022-10-03T05:07:11;6.90;;;2.40;;
18214;SDS011;9233;51.312;6.512;2022-10-03T05:10:03;4.50;;;1.87;;
18214;SDS011;9233;51.312;6.512;2022-10-03T05:13:01;3.93;;;1.90;;
18214;SDS011;9233;51.312;6.512;2022-10-03T05:15:57;6.03;;;2.10;;
18214;SDS011;9233;51.312;6.512;2022-10-03T05:18:50;4.13;;;1.90;;
18214;SDS011;9233;51.312;6.512;2022-10-03T05:21:40;6.93;;;2.00;;
18214;SDS011;9233;51.312;6.512;2022-10-03T05:24:32;3.77;;;1.80;;
18214;SDS011;9233;51.312;6.512;2022-10-03T05:27:23;7.40;;;2.10;;
18214;SDS011;9233;51.312;6.512;2022-10-03T05:30:24;5.47;;;2.07;;
18214;SDS011;9233;51.312;6.512;2022-10-03T05:33:24;6.33;;;2.17;;
18214;SDS011;9233;51.312;6.512;2022-10-03T05:36:26;2.70;;;1.90;;
18214;SDS011;9233;51.312;6.512;2022-10-03T05:39:24;8.03;;;2.00;;
18214;SDS011;9233;51.312;6.512;2022-10-03T05:42:22;3.90;;;1.50;;
18214;SDS011;9233;51.312;6.512;2022-10-03T05:45:24;8.10;;;1.87;;
18214;SDS011;9233;51.312;6.512;2022-10-03T05:48:21;6.00;;;1.90;;
18214;SDS011;9233;51.312;6.512;2022-10-03T05:54:28;4.43;;;1.83;;
18214;SDS011;9233;51.312;6.512;2022-10-03T06:00:50;7.30;;;2.07;;
18214;SDS011;9233;51.312;6.512;2022-10-03T06:03:55;4.63;;;2.13;;
18214;SDS011;9233;51.312;6.512;2022-10-03T06:06:50;6.60;;;2.13;;
18214;SDS011;9233;51.312;6.512;2022-10-03T06:13:09;6.17;;;2.17;;
18214;SDS011;9233;51.312;6.512;2022-10-03T06:15:59;4.83;;;2.67;;
18214;SDS011;9233;51.312;6.512;2022-10-03T06:18:56;8.53;;;2.50;;
18214;SDS011;9233;51.312;6.512;2022-10-03T06:32:54;6.53;;;2.23;;
18214;SDS011;9233;51.312;6.512;2022-10-03T06:36:13;3.97;;;2.10;;
18214;SDS011;9233;51.312;6.512;2022-10-03T06:39:16;7.03;;;2.40;;
18214;SDS011;9233;51.312;6.512;2022-10-03T06:45:51;7.43;;;2.50;;
18214;SDS011;9233;51.312;6.512;2022-10-03T06:49:07;4.63;;;2.37;;
18214;SDS011;9233;51.312;6.512;2022-10-03T06:52:19;6.33;;;2.83;;
18214;SDS011;9233;51.312;6.512;2022-10-03T06:55:20;6.77;;;2.93;;
18214;SDS011;9233;51.312;6.512;2022-10-03T07:02:14;4.17;;;2.07;;
18214;SDS011;9233;51.312;6.512;2022-10-03T07:05:34;4.43;;;2.47;;
18214;SDS011;9233;51.312;6.512;2022-10-03T07:08:44;7.60;;;2.20;;
18214;SDS011;9233;51.312;6.512;2022-10-03T07:12:01;6.13;;;2.37;;
18214;SDS011;9233;51.312;6.512;2022-10-03T07:15:10;9.97;;;2.60;;
18214;SDS011;9233;51.312;6.512;2022-10-03T07:18:44;6.23;;;2.20;;
18214;SDS011;9233;51.312;6.512;2022-10-03T07:25:18;7.53;;;2.60;;
18214;SDS011;9233;51.312;6.512;2022-10-03T07:28:31;11.57;;;4.10;;
18214;SDS011;9233;51.312;6.512;2022-10-03T07:31:48;7.37;;;3.07;;
18214;SDS011;9233;51.312;6.512;2022-10-03T07:38:47;6.50;;;3.33;;
18214;SDS011;9233;51.312;6.512;2022-10-03T07:41:55;6.00;;;2.83;;
18214;SDS011;9233;51.312;6.512;2022-10-03T07:45:02;7.17;;;3.07;;
18214;SDS011;9233;51.312;6.512;2022-10-03T07:51:23;7.03;;;3.07;;
18214;SDS011;9233;51.312;6.512;2022-10-03T07:57:35;6.70;;;2.70;;
18214;SDS011;9233;51.312;6.512;2022-10-03T08:00:31;7.53;;;2.40;;
18214;SDS011;9233;51.312;6.512;2022-10-03T08:06:47;8.93;;;3.23;;
18214;SDS011;9233;51.312;6.512;2022-10-03T08:09:44;6.23;;;2.47;;
18214;SDS011;9233;51.312;6.512;2022-10-03T08:12:51;8.10;;;2.40;;
18214;SDS011;9233;51.312;6.512;2022-10-03T08:15:49;9.37;;;2.60;;
18214;SDS011;9233;51.312;6.512;2022-10-03T08:18:56;6.40;;;2.70;;
18214;SDS011;9233;51.312;6.512;2022-10-03T08:22:04;9.33;;;2.63;;
18214;SDS011;9233;51.312;6.512;2022-10-03T08:24:55;6.60;;;2.47;;
18214;SDS011;9233;51.312;6.512;2022-10-03T08:31:38;5.27;;;2.30;;
18214;SDS011;9233;51.312;6.512;2022-10-03T08:35:19;6.20;;;2.33;;
18214;SDS011;9233;51.312;6.512;2022-10-03T08:38:17;8.33;;;2.00;;
18214;SDS011;9233;51.312;6.512;2022-10-03T08:48:05;11.77;;;2.73;;
18214;SDS011;9233;51.312;6.512;2022-10-03T08:57:54;6.10;;;2.00;;
18214;SDS011;9233;51.312;6.512;2022-10-03T09:07:59;7.10;;;2.23;;
18214;SDS011;9233;51.312;6.512;2022-10-03T09:18:13;5.60;;;2.00;;
18214;SDS011;9233;51.312;6.512;2022-10-03T09:21:16;7.37;;;2.13;;
18214;SDS011;9233;51.312;6.512;2022-10-03T09:28:25;10.37;;;2.30;;
18214;SDS011;9233;51.312;6.512;2022-10-03T09:31:42;4.90;;;2.43;;
18214;SDS011;9233;51.312;6.512;2022-10-03T09:45:08;4.93;;;1.50;;
18214;SDS011;9233;51.312;6.512;2022-10-03T09:48:25;6.10;;;1.50;;
18214;SDS011;9233;51.312;6.512;2022-10-03T09:51:36;22.83;;;9.33;;
18214;SDS011;9233;51.312;6.512;2022-10-03T09:57:51;16.53;;;7.17;;
18214;SDS011;9233;51.312;6.512;2022-10-03T10:00:59;6.77;;;3.63;;
18214;SDS011;9233;51.312;6.512;2022-10-03T10:07:34;7.13;;;1.83;;
18214;SDS011;9233;51.312;6.512;2022-10-03T10:10:51;3.90;;;1.40;;
18214;SDS011;9233;51.312;6.512;2022-10-03T10:17:13;5.03;;;1.60;;
18214;SDS011;9233;51.312;6.512;2022-10-03T10:23:37;4.03;;;1.03;;
18214;SDS011;9233;51.312;6.512;2022-10-03T10:26:37;8.53;;;1.97;;
18214;SDS011;9233;51.312;6.512;2022-10-03T10:29:46;3.73;;;1.23;;
18214;SDS011;9233;51.312;6.512;2022-10-03T10:36:33;3.23;;;0.83;;
18214;SDS011;9233;51.312;6.512;2022-10-03T10:39:46;1.97;;;1.00;;
18214;SDS011;9233;51.312;6.512;2022-10-03T10:43:04;4.67;;;0.73;;
18214;SDS011;9233;51.312;6.512;2022-10-03T10:46:05;4.77;;;1.70;;
18214;SDS011;9233;51.312;6.512;2022-10-03T10:49:12;5.57;;;1.57;;
18214;SDS011;9233;51.312;6.512;2022-10-03T11:16:12;5.00;;;1.57;;
18214;SDS011;9233;51.312;6.512;2022-10-03T11:23:15;9.07;;;3.30;;
18214;SDS011;9233;51.312;6.512;2022-10-03T11:26:17;6.70;;;2.07;;
18214;SDS011;9233;51.312;6.512;2022-10-03T11:29:41;1.80;;;0.97;;
18214;SDS011;9233;51.312;6.512;2022-10-03T11:33:10;1.57;;;0.77;;
18214;SDS011;9233;51.312;6.512;2022-10-03T11:36:36;4.67;;;1.53;;
18214;SDS011;9233;51.312;6.512;2022-10-03T11:39:42;4.10;;;2.10;;
18214;SDS011;9233;51.312;6.512;2022-10-03T11:42:36;5.50;;;1.63;;
18214;SDS011;9233;51.312;6.512;2022-10-03T11:45:35;6.00;;;1.20;;
18214;SDS011;9233;51.312;6.512;2022-10-03T11:48:31;4.07;;;1.00;;
18214;SDS011;9233;51.312;6.512;2022-10-03T11:51:34;4.17;;;0.90;;
18214;SDS011;9233;51.312;6.512;2022-10-03T11:54:23;2.97;;;1.00;;
18214;SDS011;9233;51.312;6.512;2022-10-03T11:57:15;2.63;;;0.70;;
18214;SDS011;9233;51.312;6.512;2022-10-03T12:00:08;3.47;;;1.00;;
18214;SDS011;9233;51.312;6.512;2022-10-03T12:03:09;5.23;;;0.80;;
18214;SDS011;9233;51.312;6.512;2022-10-03T12:05:59;4.07;;;1.10;;
18214;SDS011;9233;51.312;6.512;2022-10-03T12:09:09;4.17;;;1.53;;
18214;SDS011;9233;51.312;6.512;2022-10-03T12:12:02;3.67;;;1.37;;
18214;SDS011;9233;51.312;6.512;2022-10-03T12:14:55;2.03;;;0.80;;
18214;SDS011;9233;51.312;6.512;2022-10-03T12:17:46;4.43;;;0.73;;
18214;SDS011;9233;51.312;6.512;2022-10-03T12:20:46;2.80;;;0.60;;
18214;SDS011;9233;51.312;6.512;2022-10-03T12:23:53;5.20;;;0.87;;
18214;SDS011;9233;51.312;6.512;2022-10-03T12:26:45;3.47;;;1.10;;
18214;SDS011;9233;51.312;6.512;2022-10-03T12:29:37;2.37;;;0.70;;
18214;SDS011;9233;51.312;6.512;2022-10-03T12:32:35;7.40;;;1.10;;
18214;SDS011;9233;51.312;6.512;2022-10-03T12:35:26;4.10;;;0.70;;
18214;SDS011;9233;51.312;6.512;2022-10-03T12:38:23;5.83;;;1.10;;
18214;SDS011;9233;51.312;6.512;2022-10-03T12:41:20;2.93;;;0.60;;
18214;SDS011;9233;51.312;6.512;2022-10-03T12:44:15;3.03;;;0.73;;
18214;SDS011;9233;51.312;6.512;2022-10-03T12:47:11;5.47;;;0.80;;
18214;SDS011;9233;51.312;6.512;2022-10-03T12:50:10;2.17;;;0.60;;
18214;SDS011;9233;51.312;6.512;2022-10-03T12:53:07;3.50;;;1.00;;
18214;SDS011;9233;51.312;6.512;2022-10-03T12:56:12;3.60;;;1.20;;
18214;SDS011;9233;51.312;6.512;2022-10-03T12:59:05;1.97;;;1.10;;
18214;SDS011;9233;51.312;6.512;2022-10-03T13:02:03;1.93;;;0.90;;
18214;SDS011;9233;51.312;6.512;2022-10-03T13:05:28;1.83;;;0.70;;
18214;SDS011;9233;51.312;6.512;2022-10-03T13:08:22;2.70;;;0.50;;
18214;SDS011;9233;51.312;6.512;2022-10-03T13:11:27;1.03;;;0.60;;
18214;SDS011;9233;51.312;6.512;2022-10-03T13:14:21;2.67;;;0.47;;
18214;SDS011;9233;51.312;6.512;2022-10-03T13:17:15;4.40;;;0.97;;
18214;SDS011;9233;51.312;6.512;2022-10-03T13:20:08;1.97;;;0.80;;
18214;SDS011;9233;51.312;6.512;2022-10-03T13:23:02;1.57;;;0.60;;
18214;SDS011;9233;51.312;6.512;2022-10-03T13:25:53;2.90;;;1.03;;
18214;SDS011;9233;51.312;6.512;2022-10-03T13:28:53;5.43;;;1.00;;
18214;SDS011;9233;51.312;6.512;2022-10-03T13:32:02;2.27;;;0.70;;
18214;SDS011;9233;51.312;6.512;2022-10-03T13:34:56;2.67;;;0.57;;
18214;SDS011;9233;51.312;6.512;2022-10-03T13:38:21;4.30;;;0.93;;
18214;SDS011;9233;51.312;6.512;2022-10-03T13:41:37;5.17;;;0.87;;
18214;SDS011;9233;51.312;6.512;2022-10-03T13:44:45;5.07;;;1.00;;
18214;SDS011;9233;51.312;6.512;2022-10-03T13:47:43;1.20;;;0.50;;
18214;SDS011;9233;51.312;6.512;2022-10-03T13:50:32;6.23;;;1.60;;
18214;SDS011;9233;51.312;6.512;2022-10-03T13:53:33;3.67;;;1.53;;
18214;SDS011;9233;51.312;6.512;2022-10-03T13:56:42;5.10;;;1.00;;
18214;SDS011;9233;51.312;6.512;2022-10-03T13:59:41;2.83;;;0.73;;
18214;SDS011;9233;51.312;6.512;2022-10-03T14:02:48;2.00;;;0.70;;
18214;SDS011;9233;51.312;6.512;2022-10-03T14:05:45;1.83;;;0.50;;
18214;SDS011;9233;51.312;6.512;2022-10-03T14:11:49;3.40;;;0.60;;
18214;SDS011;9233;51.312;6.512;2022-10-03T14:14:49;2.63;;;0.60;;
18214;SDS011;9233;51.312;6.512;2022-10-03T14:17:42;4.10;;;0.70;;
18214;SDS011;9233;51.312;6.512;2022-10-03T14:20:32;4.70;;;0.60;;
18214;SDS011;9233;51.312;6.512;2022-10-03T14:23:25;2.47;;;0.60;;
18214;SDS011;9233;51.312;6.512;2022-10-03T14:26:20;17.07;;;9.33;;
18214;SDS011;9233;51.312;6.512;2022-10-03T14:29:13;6.20;;;2.70;;
18214;SDS011;9233;51.312;6.512;2022-10-03T14:32:05;3.87;;;1.80;;
18214;SDS011;9233;51.312;6.512;2022-10-03T14:35:01;4.30;;;1.27;;
18214;SDS011;9233;51.312;6.512;2022-10-03T14:37:56;4.83;;;1.20;;
18214;SDS011;9233;51.312;6.512;2022-10-03T14:41:08;4.03;;;0.70;;
18214;SDS011;9233;51.312;6.512;2022-10-03T14:44:25;3.50;;;0.70;;
18214;SDS011;9233;51.312;6.512;2022-10-03T14:47:36;2.43;;;0.87;;
18214;SDS011;9233;51.312;6.512;2022-10-03T14:50:36;2.60;;;0.60;;
18214;SDS011;9233;51.312;6.512;2022-10-03T14:53:24;4.13;;;0.80;;
18214;SDS011;9233;51.312;6.512;2022-10-03T14:56:13;4.33;;;0.70;;
18214;SDS011;9233;51.312;6.512;2022-10-03T14:59:10;4.80;;;0.70;;
18214;SDS011;9233;51.312;6.512;2022-10-03T15:02:00;2.30;;;0.60;;
18214;SDS011;9233;51.312;6.512;2022-10-03T15:04:48;1.23;;;0.60;;
18214;SDS011;9233;51.312;6.512;2022-10-03T15:07:36;5.10;;;1.00;;
18214;SDS011;9233;51.312;6.512;2022-10-03T15:10:24;2.87;;;0.70;;
18214;SDS011;9233;51.312;6.512;2022-10-03T15:13:12;2.93;;;0.70;;
18214;SDS011;9233;51.312;6.512;2022-10-03T15:16:03;4.70;;;1.10;;
18214;SDS011;9233;51.312;6.512;2022-10-03T15:18:52;2.53;;;0.87;;
18214;SDS011;9233;51.312;6.512;2022-10-03T15:21:41;4.10;;;0.80;;
18214;SDS011;9233;51.312;6.512;2022-10-03T15:24:30;4.27;;;1.10;;
18214;SDS011;9233;51.312;6.512;2022-10-03T15:27:19;5.07;;;0.77;;
18214;SDS011;9233;51.312;6.512;2022-10-03T15:30:14;2.00;;;0.60;;
18214;SDS011;9233;51.312;6.512;2022-10-03T15:33:07;3.93;;;0.70;;
18214;SDS011;9233;51.312;6.512;2022-10-03T15:36:02;3.07;;;0.80;;
18214;SDS011;9233;51.312;6.512;2022-10-03T15:38:56;2.63;;;0.70;;
18214;SDS011;9233;51.312;6.512;2022-10-03T15:41:50;3.07;;;0.80;;
18214;SDS011;9233;51.312;6.512;2022-10-03T15:44:39;2.53;;;0.70;;
18214;SDS011;9233;51.312;6.512;2022-10-03T15:47:36;3.27;;;0.90;;
18214;SDS011;9233;51.312;6.512;2022-10-03T15:50:28;1.53;;;1.00;;
18214;SDS011;9233;51.312;6.512;2022-10-03T15:53:20;3.30;;;0.90;;
18214;SDS011;9233;51.312;6.512;2022-10-03T15:56:09;4.43;;;1.00;;
18214;SDS011;9233;51.312;6.512;2022-10-03T15:59:00;5.77;;;1.33;;
18214;SDS011;9233;51.312;6.512;2022-10-03T16:01:50;3.63;;;0.80;;
18214;SDS011;9233;51.312;6.512;2022-10-03T16:04:39;3.37;;;0.70;;
18214;SDS011;9233;51.312;6.512;2022-10-03T16:07:31;3.57;;;0.97;;
18214;SDS011;9233;51.312;6.512;2022-10-03T16:10:23;3.13;;;1.00;;
18214;SDS011;9233;51.312;6.512;2022-10-03T16:13:20;3.37;;;1.10;;
18214;SDS011;9233;51.312;6.512;2022-10-03T16:16:15;1.70;;;1.20;;
18214;SDS011;9233;51.312;6.512;2022-10-03T16:22:12;3.90;;;1.17;;
18214;SDS011;9233;51.312;6.512;2022-10-03T16:25:04;3.87;;;0.80;;
18214;SDS011;9233;51.312;6.512;2022-10-03T16:27:56;3.67;;;0.80;;
18214;SDS011;9233;51.312;6.512;2022-10-03T16:30:46;3.40;;;1.00;;
18214;SDS011;9233;51.312;6.512;2022-10-03T16:33:38;2.87;;;0.87;;
18214;SDS011;9233;51.312;6.512;2022-10-03T16:36:26;7.37;;;1.47;;
18214;SDS011;9233;51.312;6.512;2022-10-03T16:39:16;6.43;;;2.07;;
18214;SDS011;9233;51.312;6.512;2022-10-03T16:42:08;5.47;;;1.60;;
18214;SDS011;9233;51.312;6.512;2022-10-03T16:44:59;3.07;;;1.70;;
18214;SDS011;9233;51.312;6.512;2022-10-03T16:47:46;4.10;;;1.77;;
18214;SDS011;9233;51.312;6.512;2022-10-03T16:50:55;5.90;;;2.00;;
18214;SDS011;9233;51.312;6.512;2022-10-03T16:53:41;7.60;;;2.03;;
18214;SDS011;9233;51.312;6.512;2022-10-03T16:56:29;5.50;;;2.20;;
18214;SDS011;9233;51.312;6.512;2022-10-03T16:59:18;6.10;;;2.37;;
18214;SDS011;9233;51.312;6.512;2022-10-03T17:02:08;4.40;;;1.97;;
18214;SDS011;9233;51.312;6.512;2022-10-03T17:04:59;4.00;;;2.23;;
18214;SDS011;9233;51.312;6.512;2022-10-03T17:07:49;4.37;;;2.20;;
18214;SDS011;9233;51.312;6.512;2022-10-03T17:10:37;4.97;;;2.03;;
18214;SDS011;9233;51.312;6.512;2022-10-03T17:13:26;4.90;;;2.03;;
18214;SDS011;9233;51.312;6.512;2022-10-03T17:16:15;4.80;;;1.70;;
18214;SDS011;9233;51.312;6.512;2022-10-03T17:19:14;6.43;;;1.90;;
18214;SDS011;9233;51.312;6.512;2022-10-03T17:22:05;6.43;;;1.50;;
18214;SDS011;9233;51.312;6.512;2022-10-03T17:24:57;7.83;;;1.90;;
18214;SDS011;9233;51.312;6.512;2022-10-03T17:27:47;2.83;;;1.40;;
18214;SDS011;9233;51.312;6.512;2022-10-03T17:30:36;6.63;;;1.47;;
18214;SDS011;9233;51.312;6.512;2022-10-03T17:33:31;2.93;;;1.90;;
18214;SDS011;9233;51.312;6.512;2022-10-03T17:36:32;8.70;;;5.27;;
18214;SDS011;9233;51.312;6.512;2022-10-03T17:39:52;12.57;;;6.93;;
18214;SDS011;9233;51.312;6.512;2022-10-03T17:42:40;43.00;;;22.63;;
18214;SDS011;9233;51.312;6.512;2022-10-03T17:45:30;25.27;;;14.90;;
18214;SDS011;9233;51.312;6.512;2022-10-03T17:48:18;14.77;;;8.83;;
18214;SDS011;9233;51.312;6.512;2022-10-03T17:54:17;15.87;;;8.53;;
18214;SDS011;9233;51.312;6.512;2022-10-03T17:57:08;34.80;;;18.87;;
18214;SDS011;9233;51.312;6.512;2022-10-03T17:59:59;18.80;;;9.57;;
18214;SDS011;9233;51.312;6.512;2022-10-03T18:02:53;12.10;;;7.10;;
18214;SDS011;9233;51.312;6.512;2022-10-03T18:05:44;9.60;;;5.07;;
18214;SDS011;9233;51.312;6.512;2022-10-03T18:08:33;14.53;;;4.60;;
18214;SDS011;9233;51.312;6.512;2022-10-03T18:11:23;6.13;;;4.40;;
18214;SDS011;9233;51.312;6.512;2022-10-03T18:14:14;8.77;;;4.03;;
18214;SDS011;9233;51.312;6.512;2022-10-03T18:17:06;5.13;;;3.53;;
18214;SDS011;9233;51.312;6.512;2022-10-03T18:20:02;5.67;;;3.57;;
18214;SDS011;9233;51.312;6.512;2022-10-03T18:22:56;5.87;;;3.50;;
18214;SDS011;9233;51.312;6.512;2022-10-03T18:25:50;7.70;;;3.57;;
18214;SDS011;9233;51.312;6.512;2022-10-03T18:28:49;5.67;;;3.70;;
18214;SDS011;9233;51.312;6.512;2022-10-03T18:31:40;8.40;;;4.13;;
18214;SDS011;9233;51.312;6.512;2022-10-03T18:34:31;9.43;;;4.23;;
18214;SDS011;9233;51.312;6.512;2022-10-03T18:40:48;7.60;;;4.10;;
18214;SDS011;9233;51.312;6.512;2022-10-03T18:43:38;5.63;;;3.70;;
18214;SDS011;9233;51.312;6.512;2022-10-03T18:46:31;6.23;;;3.57;;
18214;SDS011;9233;51.312;6.512;2022-10-03T18:49:21;7.17;;;3.37;;
18214;SDS011;9233;51.312;6.512;2022-10-03T18:52:10;6.63;;;3.43;;
18214;SDS011;9233;51.312;6.512;2022-10-03T18:55:02;5.90;;;3.77;;
18214;SDS011;9233;51.312;6.512;2022-10-03T18:57:53;8.27;;;4.30;;
18214;SDS011;9233;51.312;6.512;2022-10-03T19:00:46;5.63;;;3.73;;
18214;SDS011;9233;51.312;6.512;2022-10-03T19:03:37;8.80;;;4.10;;
18214;SDS011;9233;51.312;6.512;2022-10-03T19:06:26;6.23;;;3.33;;
18214;SDS011;9233;51.312;6.512;2022-10-03T19:09:17;7.87;;;3.27;;
18214;SDS011;9233;51.312;6.512;2022-10-03T19:12:08;6.23;;;3.10;;
18214;SDS011;9233;51.312;6.512;2022-10-03T19:15:00;5.37;;;2.80;;
18214;SDS011;9233;51.312;6.512;2022-10-03T19:17:58;5.17;;;3.00;;
18214;SDS011;9233;51.312;6.512;2022-10-03T19:20:54;6.23;;;3.00;;
18214;SDS011;9233;51.312;6.512;2022-10-03T19:23:42;7.37;;;2.60;;
18214;SDS011;9233;51.312;6.512;2022-10-03T19:26:32;6.23;;;2.93;;
18214;SDS011;9233;51.312;6.512;2022-10-03T19:29:20;48.43;;;26.90;;
18214;SDS011;9233;51.312;6.512;2022-10-03T19:32:14;19.43;;;9.97;;
18214;SDS011;9233;51.312;6.512;2022-10-03T19:35:03;8.77;;;5.10;;
18214;SDS011;9233;51.312;6.512;2022-10-03T19:37:52;7.27;;;3.70;;
18214;SDS011;9233;51.312;6.512;2022-10-03T19:40:42;6.13;;;3.10;;
18214;SDS011;9233;51.312;6.512;2022-10-03T19:43:33;5.17;;;2.80;;
18214;SDS011;9233;51.312;6.512;2022-10-03T19:46:28;7.07;;;2.63;;
18214;SDS011;9233;51.312;6.512;2022-10-03T19:49:29;4.70;;;2.20;;
18214;SDS011;9233;51.312;6.512;2022-10-03T19:52:23;5.93;;;3.20;;
18214;SDS011;9233;51.312;6.512;2022-10-03T19:55:13;7.43;;;2.97;;
18214;SDS011;9233;51.312;6.512;2022-10-03T19:58:02;5.87;;;3.00;;
18214;SDS011;9233;51.312;6.512;2022-10-03T20:00:50;9.80;;;2.80;;
18214;SDS011;9233;51.312;6.512;2022-10-03T20:03:38;7.57;;;3.30;;
18214;SDS011;9233;51.312;6.512;2022-10-03T20:06:28;8.97;;;3.13;;
18214;SDS011;9233;51.312;6.512;2022-10-03T20:09:18;4.07;;;3.13;;
18214;SDS011;9233;51.312;6.512;2022-10-03T20:12:09;5.63;;;3.50;;
18214;SDS011;9233;51.312;6.512;2022-10-03T20:14:57;8.00;;;3.77;;
18214;SDS011;9233;51.312;6.512;2022-10-03T20:17:45;6.93;;;3.57;;
18214;SDS011;9233;51.312;6.512;2022-10-03T20:20:32;8.40;;;3.80;;
18214;SDS011;9233;51.312;6.512;2022-10-03T20:23:20;6.67;;;3.80;;
18214;SDS011;9233;51.312;6.512;2022-10-03T20:26:10;5.63;;;3.00;;
18214;SDS011;9233;51.312;6.512;2022-10-03T20:29:07;4.53;;;2.40;;
18214;SDS011;9233;51.312;6.512;2022-10-03T20:32:02;6.80;;;2.47;;
18214;SDS011;9233;51.312;6.512;2022-10-03T20:34:50;6.77;;;2.30;;
18214;SDS011;9233;51.312;6.512;2022-10-03T20:37:42;6.90;;;2.93;;
18214;SDS011;9233;51.312;6.512;2022-10-03T20:40:33;8.07;;;2.33;;
18214;SDS011;9233;51.312;6.512;2022-10-03T20:43:26;5.70;;;2.13;;
18214;SDS011;9233;51.312;6.512;2022-10-03T20:46:21;5.30;;;1.90;;
18214;SDS011;9233;51.312;6.512;2022-10-03T20:49:12;5.87;;;2.30;;